createdAt,value
2024-05-09T00:00:10.424Z,65.80
2024-05-09T00:01:08.591Z,65.84
2024-05-09T00:02:07.535Z,66.11
2024-05-09T00:03:08.870Z,65.76
2024-05-09T00:04:07.823Z,64.41
2024-05-09T00:05:07.922Z,65.81
2024-05-09T00:06:08.034Z,62.52
2024-05-09T00:07:07.883Z,62.26
2024-05-09T00:08:07.935Z,62.67
2024-05-09T00:09:07.982Z,62.46
2024-05-09T00:10:11.820Z,66.02
2024-05-09T00:11:09.158Z,66.03
2024-05-09T00:12:08.247Z,66.29
2024-05-09T00:13:08.444Z,66.39
2024-05-09T00:14:08.062Z,63.76
2024-05-09T00:15:08.014Z,66.81
2024-05-09T00:16:07.976Z,65.62
2024-05-09T00:17:08.020Z,64.75
2024-05-09T00:18:08.569Z,63.29
2024-05-09T00:19:08.064Z,66.96
2024-05-09T00:20:14.403Z,62.12
2024-05-09T00:21:09.332Z,62.23
2024-05-09T00:22:08.017Z,62.45
2024-05-09T00:23:08.317Z,63.63
2024-05-09T00:24:08.029Z,63.35
2024-05-09T00:25:08.009Z,62.46
2024-05-09T00:26:08.058Z,63.79
2024-05-09T00:27:09.031Z,66.70
2024-05-09T00:28:07.998Z,64.78
2024-05-09T00:29:08.071Z,60.69
2024-05-09T00:30:11.566Z,61.88
2024-05-09T00:31:09.012Z,62.00
2024-05-09T00:32:08.147Z,62.37
2024-05-09T00:33:09.614Z,61.80
2024-05-09T00:34:08.135Z,64.10
2024-05-09T00:35:08.157Z,65.38
2024-05-09T00:36:08.013Z,65.92
2024-05-09T00:37:08.015Z,62.72
2024-05-09T00:38:08.278Z,63.60
2024-05-09T00:39:08.008Z,61.75
2024-05-09T00:40:15.338Z,60.59
2024-05-09T00:41:09.098Z,60.79
2024-05-09T00:42:08.037Z,61.03
2024-05-09T00:43:08.034Z,61.97
2024-05-09T00:44:08.500Z,61.62
2024-05-09T00:45:08.017Z,63.64
2024-05-09T00:46:08.052Z,62.43
2024-05-09T00:47:08.274Z,62.74
2024-05-09T00:48:09.464Z,61.88
2024-05-09T00:49:08.239Z,60.76
2024-05-09T00:50:12.880Z,61.95
2024-05-09T00:51:09.221Z,62.02
2024-05-09T00:52:08.163Z,62.07
2024-05-09T00:53:08.293Z,62.52
2024-05-09T00:54:08.183Z,61.29
2024-05-09T00:55:08.181Z,62.64
2024-05-09T00:56:08.233Z,62.60
2024-05-09T00:57:08.155Z,59.58
2024-05-09T00:58:08.160Z,60.53
2024-05-09T00:59:08.217Z,61.14
2024-05-09T01:00:18.363Z,60.70
2024-05-09T01:01:09.231Z,60.73
2024-05-09T01:02:08.276Z,60.71
2024-05-09T01:03:09.248Z,60.63
2024-05-09T01:04:08.260Z,61.78
2024-05-09T01:05:08.271Z,62.42
2024-05-09T01:06:08.219Z,60.04
2024-05-09T01:07:08.243Z,61.74
2024-05-09T01:08:08.517Z,61.31
2024-05-09T01:09:08.181Z,59.10
2024-05-09T01:10:14.107Z,63.58
2024-05-09T01:11:09.302Z,63.62
2024-05-09T01:12:08.429Z,63.61
2024-05-09T01:13:08.203Z,61.53
2024-05-09T01:14:08.242Z,61.30
2024-05-09T01:15:08.180Z,60.43
2024-05-09T01:16:08.201Z,58.65
2024-05-09T01:17:08.267Z,57.69
2024-05-09T01:18:08.347Z,58.37
2024-05-09T01:19:08.268Z,57.82
2024-05-09T01:20:10.748Z,58.77
2024-05-09T01:21:09.255Z,58.83
2024-05-09T01:22:08.172Z,58.81
2024-05-09T01:23:08.397Z,59.16
2024-05-09T01:24:08.200Z,59.13
2024-05-09T01:25:08.201Z,57.99
2024-05-09T01:26:08.289Z,57.62
2024-05-09T01:27:08.180Z,57.27
2024-05-09T01:28:08.236Z,57.40
2024-05-09T01:29:08.251Z,56.68
2024-05-09T01:30:11.909Z,57.78
2024-05-09T01:31:09.234Z,57.86
2024-05-09T01:32:08.286Z,58.06
2024-05-09T01:33:10.195Z,58.60
2024-05-09T01:34:08.254Z,58.85
2024-05-09T01:35:08.250Z,57.61
2024-05-09T01:36:08.245Z,59.24
2024-05-09T01:37:08.221Z,57.48
2024-05-09T01:38:08.300Z,56.59
2024-05-09T01:39:08.209Z,56.53
2024-05-09T01:40:12.261Z,56.90
2024-05-09T01:41:09.337Z,56.98
2024-05-09T01:42:08.253Z,57.08
2024-05-09T01:43:09.459Z,56.93
2024-05-09T01:44:08.297Z,56.43
2024-05-09T01:45:08.223Z,57.37
2024-05-09T01:46:08.255Z,58.63
2024-05-09T01:47:08.416Z,56.88
2024-05-09T01:48:08.561Z,56.74
2024-05-09T01:49:08.405Z,58.62
2024-05-09T01:50:10.779Z,56.82
2024-05-09T01:51:08.462Z,57.71
2024-05-09T01:52:08.246Z,58.93
2024-05-09T01:53:08.425Z,57.01
2024-05-09T01:54:08.296Z,57.17
2024-05-09T01:55:08.260Z,54.03
2024-05-09T01:56:08.340Z,57.37
2024-05-09T01:57:08.270Z,57.08
2024-05-09T01:58:08.237Z,55.23
2024-05-09T01:59:08.338Z,54.60
2024-05-09T02:00:10.232Z,54.09
2024-05-09T02:01:08.292Z,54.16
2024-05-09T02:02:08.446Z,54.43
2024-05-09T02:03:08.528Z,53.43
2024-05-09T02:04:08.471Z,54.03
2024-05-09T02:05:08.405Z,53.54
2024-05-09T02:06:08.472Z,56.96
2024-05-09T02:07:08.275Z,57.08
2024-05-09T02:08:08.361Z,54.99
2024-05-09T02:09:08.296Z,55.37
2024-05-09T02:10:16.117Z,56.44
2024-05-09T02:11:09.393Z,56.36
2024-05-09T02:12:08.485Z,56.49
2024-05-09T02:13:08.287Z,52.79
2024-05-09T02:14:08.326Z,55.84
2024-05-09T02:15:08.332Z,54.98
2024-05-09T02:16:08.279Z,54.20
2024-05-09T02:17:08.414Z,54.75
2024-05-09T02:18:08.627Z,54.88
2024-05-09T02:19:08.445Z,53.99
2024-05-09T02:20:13.138Z,53.67
2024-05-09T02:21:09.325Z,53.84
2024-05-09T02:22:08.344Z,53.49
2024-05-09T02:23:08.454Z,53.14
2024-05-09T02:24:08.297Z,54.77
2024-05-09T02:25:08.296Z,54.32
2024-05-09T02:26:08.357Z,53.87
2024-05-09T02:27:08.280Z,53.40
2024-05-09T02:28:08.330Z,51.57
2024-05-09T02:29:08.357Z,54.64
2024-05-09T02:30:18.280Z,55.03
2024-05-09T02:31:09.310Z,55.13
2024-05-09T02:32:08.415Z,55.16
2024-05-09T02:33:09.245Z,55.34
2024-05-09T02:34:08.417Z,55.44
2024-05-09T02:35:08.610Z,54.70
2024-05-09T02:36:08.321Z,51.67
2024-05-09T02:37:08.295Z,54.33
2024-05-09T02:38:08.301Z,55.17
2024-05-09T02:39:08.297Z,51.65
2024-05-09T02:40:11.722Z,53.55
2024-05-09T02:41:09.404Z,53.71
2024-05-09T02:42:08.316Z,54.01
2024-05-09T02:43:09.778Z,54.20
2024-05-09T02:44:08.551Z,55.18
2024-05-09T02:45:08.545Z,54.64
2024-05-09T02:46:08.546Z,53.46
2024-05-09T02:47:08.651Z,53.16
2024-05-09T02:48:08.642Z,54.27
2024-05-09T02:49:08.694Z,52.21
2024-05-09T02:50:08.669Z,50.00
2024-05-09T02:51:08.724Z,54.32
2024-05-09T02:52:08.586Z,50.77
2024-05-09T02:53:09.500Z,55.16
2024-05-09T02:54:08.623Z,52.92
2024-05-09T02:55:08.618Z,52.20
2024-05-09T02:56:08.678Z,53.88
2024-05-09T02:57:08.653Z,52.72
2024-05-09T02:58:08.653Z,54.24
2024-05-09T02:59:08.665Z,51.89
2024-05-09T03:00:15.178Z,51.94
2024-05-09T03:01:09.743Z,51.98
2024-05-09T03:02:08.711Z,52.39
2024-05-09T03:03:10.330Z,52.89
2024-05-09T03:04:08.797Z,52.02
2024-05-09T03:05:08.713Z,52.27
2024-05-09T03:06:08.682Z,52.71
2024-05-09T03:07:08.682Z,52.22
2024-05-09T03:08:08.907Z,53.01
2024-05-09T03:09:08.712Z,56.03
2024-05-09T03:10:18.148Z,52.72
2024-05-09T03:11:09.799Z,52.94
2024-05-09T03:12:08.742Z,53.34
2024-05-09T03:13:09.094Z,54.01
2024-05-09T03:14:08.724Z,54.08
2024-05-09T03:15:08.698Z,55.26
2024-05-09T03:16:08.709Z,52.53
2024-05-09T03:17:08.802Z,53.94
2024-05-09T03:18:08.913Z,53.83
2024-05-09T03:19:08.850Z,50.18
2024-05-09T03:20:17.282Z,53.41
2024-05-09T03:21:09.840Z,53.48
2024-05-09T03:22:08.734Z,53.72
2024-05-09T03:23:09.852Z,51.53
2024-05-09T03:24:08.709Z,51.14
2024-05-09T03:25:08.712Z,53.96
2024-05-09T03:26:08.775Z,52.91
2024-05-09T03:27:08.722Z,53.60
2024-05-09T03:28:08.722Z,53.94
2024-05-09T03:29:08.761Z,53.45
2024-05-09T03:30:09.851Z,52.53
2024-05-09T03:31:08.718Z,51.57
2024-05-09T03:32:08.834Z,53.17
2024-05-09T03:33:09.018Z,50.82
2024-05-09T03:34:08.879Z,53.52
2024-05-09T03:35:08.723Z,52.63
2024-05-09T03:36:11.210Z,51.54
2024-05-09T03:37:08.751Z,54.41
2024-05-09T03:38:08.957Z,51.44
2024-05-09T03:39:08.772Z,51.71
2024-05-09T03:40:14.501Z,54.29
2024-05-09T03:41:09.797Z,54.41
2024-05-09T03:42:08.719Z,54.67
2024-05-09T03:43:08.735Z,54.16
2024-05-09T03:44:08.767Z,55.46
2024-05-09T03:45:08.752Z,51.50
2024-05-09T03:46:08.751Z,55.79
2024-05-09T03:47:08.797Z,55.51
2024-05-09T03:48:09.115Z,53.22
2024-05-09T03:49:08.908Z,52.55
2024-05-09T03:50:15.178Z,52.97
2024-05-09T03:51:09.884Z,53.02
2024-05-09T03:52:08.763Z,52.72
2024-05-09T03:53:08.780Z,52.77
2024-05-09T03:54:08.777Z,53.51
2024-05-09T03:55:08.775Z,54.99
2024-05-09T03:56:08.817Z,54.16
2024-05-09T03:57:08.730Z,53.60
2024-05-09T03:58:08.771Z,52.38
2024-05-09T03:59:08.793Z,51.56
2024-05-09T04:00:17.738Z,52.68
2024-05-09T04:01:09.812Z,52.83
2024-05-09T04:02:08.891Z,53.21
2024-05-09T04:03:11.292Z,53.16
2024-05-09T04:04:08.940Z,52.74
2024-05-09T04:05:08.823Z,52.37
2024-05-09T04:06:08.808Z,53.43
2024-05-09T04:07:08.761Z,52.39
2024-05-09T04:08:08.888Z,51.74
2024-05-09T04:09:08.769Z,50.82
2024-05-09T04:10:11.293Z,52.65
2024-05-09T04:11:09.927Z,52.81
2024-05-09T04:12:08.818Z,53.05
2024-05-09T04:13:08.801Z,51.78
2024-05-09T04:14:08.793Z,50.18
2024-05-09T04:15:12.146Z,50.82
2024-05-09T04:16:08.751Z,52.69
2024-05-09T04:17:08.935Z,52.49
2024-05-09T04:18:08.907Z,47.37
2024-05-09T04:19:08.846Z,50.07
2024-05-09T04:20:12.418Z,45.68
2024-05-09T04:21:09.918Z,48.25
2024-05-09T04:22:08.806Z,45.73
2024-05-09T04:23:09.551Z,46.36
2024-05-09T04:24:08.767Z,45.55
2024-05-09T04:25:08.776Z,45.25
2024-05-09T04:26:08.834Z,52.74
2024-05-09T04:27:08.784Z,50.00
2024-05-09T04:28:08.792Z,51.29
2024-05-09T04:29:08.769Z,52.41
2024-05-09T04:30:15.312Z,52.45
2024-05-09T04:31:09.835Z,52.53
2024-05-09T04:32:08.902Z,52.89
2024-05-09T04:33:11.309Z,51.25
2024-05-09T04:34:09.003Z,52.50
2024-05-09T04:35:08.853Z,50.11
2024-05-09T04:36:08.846Z,48.61
2024-05-09T04:37:08.792Z,48.59
2024-05-09T04:38:08.846Z,48.69
2024-05-09T04:39:16.086Z,50.00
2024-05-09T04:40:24.287Z,50.00
2024-05-09T04:41:17.102Z,50.00
2024-05-09T04:42:16.109Z,50.00
2024-05-09T04:43:16.225Z,50.00
2024-05-09T04:44:16.170Z,50.00
2024-05-09T04:45:16.128Z,50.00
2024-05-09T04:46:16.148Z,51.93
2024-05-09T04:47:16.203Z,50.94
2024-05-09T04:48:16.498Z,51.43
2024-05-09T04:49:16.212Z,50.84
2024-05-09T04:50:25.211Z,50.00
2024-05-09T04:51:17.193Z,50.13
2024-05-09T04:52:16.120Z,50.51
2024-05-09T04:53:16.285Z,51.46
2024-05-09T04:54:26.314Z,51.54
2024-05-09T04:55:17.167Z,50.10
2024-05-09T04:56:16.182Z,50.27
2024-05-09T04:57:16.174Z,51.54
2024-05-09T04:58:16.177Z,52.56
2024-05-09T04:59:16.184Z,51.44
2024-05-09T05:00:21.979Z,51.49
2024-05-09T05:01:17.240Z,51.60
2024-05-09T05:02:16.207Z,51.87
2024-05-09T05:03:16.905Z,52.36
2024-05-09T05:04:16.284Z,53.70
2024-05-09T05:05:16.441Z,53.14
2024-05-09T05:06:16.163Z,51.80
2024-05-09T05:07:16.129Z,53.19
2024-05-09T05:08:17.158Z,53.75
2024-05-09T05:09:16.128Z,53.64
2024-05-09T05:10:21.693Z,51.89
2024-05-09T05:11:17.384Z,51.98
2024-05-09T05:12:16.281Z,52.36
2024-05-09T05:13:16.167Z,52.96
2024-05-09T05:14:16.195Z,53.62
2024-05-09T05:15:16.175Z,54.80
2024-05-09T05:16:16.177Z,53.56
2024-05-09T05:17:16.183Z,54.21
2024-05-09T05:18:16.521Z,52.39
2024-05-09T05:19:17.747Z,53.08
2024-05-09T05:20:26.944Z,50.74
2024-05-09T05:21:17.181Z,50.90
2024-05-09T05:22:16.175Z,51.54
2024-05-09T05:23:16.603Z,51.51
2024-05-09T05:24:16.177Z,51.87
2024-05-09T05:25:16.143Z,52.78
2024-05-09T05:26:16.180Z,56.01
2024-05-09T05:27:16.157Z,53.41
2024-05-09T05:28:16.186Z,53.19
2024-05-09T05:29:18.596Z,56.18
2024-05-09T05:30:21.438Z,56.23
2024-05-09T05:31:17.179Z,56.32
2024-05-09T05:32:16.403Z,56.25
2024-05-09T05:33:16.382Z,56.49
2024-05-09T05:34:16.206Z,57.10
2024-05-09T05:35:16.236Z,58.28
2024-05-09T05:36:16.157Z,54.40
2024-05-09T05:37:16.175Z,55.80
2024-05-09T05:38:16.253Z,55.60
2024-05-09T05:39:16.187Z,55.26
2024-05-09T05:40:25.306Z,55.21
2024-05-09T05:41:17.236Z,55.29
2024-05-09T05:42:16.173Z,55.41
2024-05-09T05:43:16.235Z,55.87
2024-05-09T05:44:16.240Z,56.02
2024-05-09T05:45:16.179Z,57.88
2024-05-09T05:46:16.186Z,55.93
2024-05-09T05:47:16.305Z,55.83
2024-05-09T05:48:16.687Z,58.19
2024-05-09T05:49:16.369Z,56.65
2024-05-09T05:50:24.593Z,57.09
2024-05-09T05:51:17.419Z,57.13
2024-05-09T05:52:16.186Z,56.30
2024-05-09T05:53:16.393Z,54.70
2024-05-09T05:54:16.176Z,57.18
2024-05-09T05:55:16.221Z,58.50
2024-05-09T05:56:16.202Z,56.83
2024-05-09T05:57:16.201Z,54.51
2024-05-09T05:58:16.215Z,55.86
2024-05-09T05:59:16.330Z,55.78
2024-05-09T06:00:25.970Z,56.62
2024-05-09T06:01:17.277Z,56.69
2024-05-09T06:02:16.317Z,56.77
2024-05-09T06:03:16.422Z,54.26
2024-05-09T06:04:16.232Z,58.03
2024-05-09T06:05:16.250Z,55.13
2024-05-09T06:06:16.214Z,53.96
2024-05-09T06:07:16.226Z,56.08
2024-05-09T06:08:16.296Z,55.69
2024-05-09T06:09:16.199Z,57.42
2024-05-09T06:10:21.487Z,54.70
2024-05-09T06:11:17.282Z,54.83
2024-05-09T06:12:16.366Z,55.21
2024-05-09T06:13:16.234Z,54.99
2024-05-09T06:14:16.253Z,55.28
2024-05-09T06:15:16.226Z,57.59
2024-05-09T06:16:16.234Z,56.31
2024-05-09T06:17:16.312Z,55.61
2024-05-09T06:18:16.341Z,56.02
2024-05-09T06:19:16.344Z,56.53
2024-05-09T06:20:20.818Z,55.01
2024-05-09T06:21:17.523Z,55.04
2024-05-09T06:22:16.226Z,55.38
2024-05-09T06:23:16.242Z,55.36
2024-05-09T06:24:16.235Z,55.63
2024-05-09T06:25:16.246Z,54.89
2024-05-09T06:26:16.302Z,53.21
2024-05-09T06:27:16.272Z,53.24
2024-05-09T06:28:16.285Z,53.44
2024-05-09T06:29:16.366Z,54.40
2024-05-09T06:30:25.709Z,54.75
2024-05-09T06:31:17.262Z,54.78
2024-05-09T06:32:16.414Z,52.21
2024-05-09T06:33:16.922Z,54.70
2024-05-09T06:34:16.443Z,55.85
2024-05-09T06:35:16.291Z,54.35
2024-05-09T06:36:16.277Z,55.48
2024-05-09T06:37:16.288Z,55.35
2024-05-09T06:38:16.285Z,54.95
2024-05-09T06:39:16.253Z,51.55
2024-05-09T06:40:21.408Z,54.87
2024-05-09T06:41:17.336Z,54.87
2024-05-09T06:42:16.252Z,55.13
2024-05-09T06:43:18.292Z,54.58
2024-05-09T06:44:16.326Z,55.16
2024-05-09T06:45:16.244Z,55.70
2024-05-09T06:46:16.306Z,55.09
2024-05-09T06:47:16.355Z,56.71
2024-05-09T06:48:16.349Z,53.20
2024-05-09T06:49:16.401Z,55.71
2024-05-09T06:50:23.428Z,52.05
2024-05-09T06:51:17.493Z,52.19
2024-05-09T06:52:16.279Z,52.38
2024-05-09T06:53:16.360Z,52.41
2024-05-09T06:54:16.315Z,54.04
2024-05-09T06:55:16.289Z,53.28
2024-05-09T06:56:16.416Z,53.91
2024-05-09T06:57:16.261Z,54.94
2024-05-09T06:58:16.314Z,52.44
2024-05-09T06:59:16.295Z,53.59
2024-05-09T07:00:23.041Z,52.39
2024-05-09T07:01:17.321Z,52.44
2024-05-09T07:02:16.394Z,52.85
2024-05-09T07:03:18.327Z,53.01
2024-05-09T07:04:16.389Z,53.63
2024-05-09T07:05:16.351Z,52.47
2024-05-09T07:06:16.795Z,53.00
2024-05-09T07:07:16.304Z,54.76
2024-05-09T07:08:16.498Z,54.92
2024-05-09T07:09:16.298Z,52.59
2024-05-09T07:10:22.107Z,55.89
2024-05-09T07:11:17.412Z,55.97
2024-05-09T07:12:16.474Z,54.46
2024-05-09T07:13:16.321Z,52.89
2024-05-09T07:14:16.453Z,53.83
2024-05-09T07:15:16.379Z,52.38
2024-05-09T07:16:16.409Z,51.22
2024-05-09T07:17:16.532Z,51.12
2024-05-09T07:18:18.173Z,50.89
2024-05-09T07:19:16.499Z,51.44
2024-05-09T07:20:23.547Z,53.29
2024-05-09T07:21:17.420Z,53.50
2024-05-09T07:22:16.337Z,53.43
2024-05-09T07:23:16.551Z,53.69
2024-05-09T07:24:16.341Z,55.30
2024-05-09T07:25:16.350Z,53.39
2024-05-09T07:26:16.457Z,54.25
2024-05-09T07:27:16.319Z,53.43
2024-05-09T07:28:16.811Z,56.61
2024-05-09T07:29:16.436Z,55.62
2024-05-09T07:30:23.507Z,53.03
2024-05-09T07:31:17.475Z,53.15
2024-05-09T07:32:16.572Z,53.17
2024-05-09T07:33:16.596Z,53.25
2024-05-09T07:34:16.597Z,55.84
2024-05-09T07:35:16.517Z,51.45
2024-05-09T07:36:16.568Z,53.50
2024-05-09T07:37:16.460Z,51.89
2024-05-09T07:38:16.571Z,54.58
2024-05-09T07:39:16.504Z,53.73
2024-05-09T07:40:24.960Z,52.15
2024-05-09T07:41:17.622Z,52.33
2024-05-09T07:42:16.583Z,52.76
2024-05-09T07:43:16.699Z,53.23
2024-05-09T07:44:16.640Z,52.62
2024-05-09T07:45:39.101Z,54.74
2024-05-09T07:47:14.259Z,52.26
2024-05-09T07:48:28.988Z,52.42
2024-05-09T07:53:29.961Z,52.51
2024-05-09T07:53:38.126Z,52.68
2024-05-09T07:54:18.043Z,52.60
2024-05-09T07:55:16.881Z,54.08
2024-05-09T07:56:16.988Z,56.06
2024-05-09T07:57:16.804Z,58.19
2024-05-09T07:58:16.743Z,60.56
2024-05-09T07:59:16.740Z,58.90
2024-05-09T08:00:23.512Z,58.14
2024-05-09T08:01:17.909Z,58.20
2024-05-09T08:02:16.955Z,57.21
2024-05-09T08:03:16.753Z,58.37
2024-05-09T08:04:16.775Z,57.17
2024-05-09T08:05:17.009Z,56.81
2024-05-09T08:06:16.735Z,55.75
2024-05-09T08:07:16.776Z,53.70
2024-05-09T08:08:16.767Z,54.02
2024-05-09T08:09:20.609Z,53.79
2024-05-09T08:10:22.042Z,53.91
2024-05-09T08:11:17.811Z,53.96
2024-05-09T08:12:16.757Z,54.53
2024-05-09T08:13:16.831Z,53.87
2024-05-09T08:14:16.738Z,54.74
2024-05-09T08:15:16.826Z,52.81
2024-05-09T08:16:16.801Z,53.08
2024-05-09T08:17:16.782Z,54.57
2024-05-09T08:18:16.793Z,53.86
2024-05-09T08:19:16.828Z,55.61
2024-05-09T08:20:26.514Z,53.77
2024-05-09T08:21:17.767Z,53.90
2024-05-09T08:22:16.794Z,53.90
2024-05-09T08:23:16.765Z,53.79
2024-05-09T08:24:16.755Z,55.26
2024-05-09T08:25:16.788Z,55.93
2024-05-09T08:26:16.804Z,55.84
2024-05-09T08:27:16.743Z,54.75
2024-05-09T08:28:16.806Z,54.01
2024-05-09T08:29:16.787Z,55.25
2024-05-09T08:30:24.612Z,54.60
2024-05-09T08:31:17.887Z,54.64
2024-05-09T08:32:16.802Z,54.64
2024-05-09T08:33:16.898Z,54.89
2024-05-09T08:34:16.942Z,55.62
2024-05-09T08:35:16.790Z,52.05
2024-05-09T08:36:16.798Z,54.37
2024-05-09T08:37:22.441Z,55.19
2024-05-09T08:38:17.778Z,55.32
2024-05-09T08:39:16.767Z,55.33
2024-05-09T08:40:23.977Z,55.74
2024-05-09T08:41:17.803Z,55.26
2024-05-09T08:42:16.772Z,55.66
2024-05-09T08:43:16.908Z,55.54
2024-05-09T08:44:16.787Z,56.15
2024-05-09T08:45:16.825Z,55.19
2024-05-09T08:46:16.840Z,55.34
2024-05-09T08:47:16.834Z,55.50
2024-05-09T08:48:17.023Z,53.99
2024-05-09T08:49:16.873Z,55.38
2024-05-09T08:50:28.707Z,55.59
2024-05-09T08:51:17.791Z,55.62
2024-05-09T08:52:16.804Z,55.78
2024-05-09T08:53:16.777Z,54.98
2024-05-09T08:54:16.798Z,55.80
2024-05-09T08:55:16.812Z,55.40
2024-05-09T08:56:16.802Z,54.32
2024-05-09T08:57:16.794Z,53.27
2024-05-09T08:58:17.226Z,52.54
2024-05-09T08:59:16.794Z,50.00
2024-05-09T09:00:25.597Z,53.00
2024-05-09T09:01:17.919Z,53.16
2024-05-09T09:02:16.990Z,53.22
2024-05-09T09:03:16.890Z,53.89
2024-05-09T09:04:16.940Z,53.80
2024-05-09T09:05:17.006Z,52.47
2024-05-09T09:06:16.807Z,53.79
2024-05-09T09:07:16.869Z,51.47
2024-05-09T09:08:16.792Z,54.03
2024-05-09T09:09:16.822Z,54.05
2024-05-09T09:10:25.376Z,53.41
2024-05-09T09:11:17.854Z,53.46
2024-05-09T09:12:16.828Z,53.68
2024-05-09T09:13:16.953Z,53.75
2024-05-09T09:14:16.821Z,52.94
2024-05-09T09:15:16.800Z,50.27
2024-05-09T09:16:16.963Z,51.56
2024-05-09T09:17:16.931Z,52.45
2024-05-09T09:18:16.946Z,51.39
2024-05-09T09:19:17.047Z,50.86
2024-05-09T09:20:23.206Z,54.08
2024-05-09T09:21:17.866Z,54.13
2024-05-09T09:22:16.955Z,54.23
2024-05-09T09:23:16.805Z,54.24
2024-05-09T09:24:16.838Z,53.02
2024-05-09T09:25:16.858Z,52.40
2024-05-09T09:26:16.854Z,52.77
2024-05-09T09:27:16.856Z,51.47
2024-05-09T09:28:16.935Z,54.66
2024-05-09T09:29:16.874Z,53.32
2024-05-09T09:30:30.868Z,53.47
2024-05-09T09:31:17.881Z,53.49
2024-05-09T09:32:16.943Z,53.35
2024-05-09T09:33:16.963Z,52.65
2024-05-09T09:34:16.972Z,51.75
2024-05-09T09:35:16.883Z,50.37
2024-05-09T09:36:16.839Z,50.46
2024-05-09T09:37:16.875Z,50.17
2024-05-09T09:38:16.860Z,51.79
2024-05-09T09:39:16.841Z,51.89
2024-05-09T09:40:18.432Z,51.22
2024-05-09T09:41:16.958Z,53.74
2024-05-09T09:42:16.851Z,52.36
2024-05-09T09:43:16.897Z,52.79
2024-05-09T09:44:16.835Z,53.99
2024-05-09T09:45:16.861Z,52.32
2024-05-09T09:46:16.985Z,55.40
2024-05-09T09:47:16.934Z,54.38
2024-05-09T09:48:17.051Z,50.00
2024-05-09T09:49:17.116Z,51.16
2024-05-09T09:50:20.879Z,53.09
2024-05-09T09:51:17.867Z,53.21
2024-05-09T09:52:17.103Z,53.54
2024-05-09T09:53:16.912Z,53.80
2024-05-09T09:54:16.883Z,53.31
2024-05-09T09:55:16.896Z,54.20
2024-05-09T09:56:16.849Z,54.08
2024-05-09T09:57:16.886Z,53.46
2024-05-09T09:58:17.084Z,55.22
2024-05-09T09:59:16.904Z,50.65
2024-05-09T10:00:24.039Z,53.01
2024-05-09T10:01:17.986Z,53.12
2024-05-09T10:02:17.041Z,53.37
2024-05-09T10:03:16.965Z,53.93
2024-05-09T10:04:17.121Z,54.89
2024-05-09T10:05:16.998Z,52.46
2024-05-09T10:06:16.911Z,53.64
2024-05-09T10:07:16.918Z,51.81
2024-05-09T10:08:16.906Z,51.31
2024-05-09T10:09:16.876Z,53.46
2024-05-09T10:10:22.956Z,54.49
2024-05-09T10:11:17.937Z,53.72
2024-05-09T10:12:16.924Z,54.03
2024-05-09T10:13:16.968Z,50.32
2024-05-09T10:14:16.888Z,51.92
2024-05-09T10:15:16.874Z,55.01
2024-05-09T10:16:16.946Z,51.36
2024-05-09T10:17:16.953Z,53.55
2024-05-09T10:18:17.074Z,54.24
2024-05-09T10:19:16.958Z,53.88
2024-05-09T10:20:21.932Z,51.99
2024-05-09T10:21:17.885Z,52.11
2024-05-09T10:22:16.937Z,52.06
2024-05-09T10:23:16.900Z,52.25
2024-05-09T10:24:16.969Z,54.71
2024-05-09T10:25:17.118Z,54.44
2024-05-09T10:26:16.907Z,51.70
2024-05-09T10:27:16.898Z,53.48
2024-05-09T10:28:17.005Z,55.92
2024-05-09T10:29:16.934Z,52.45
2024-05-09T10:30:25.774Z,53.45
2024-05-09T10:31:18.013Z,53.54
2024-05-09T10:32:16.956Z,53.73
2024-05-09T10:33:17.007Z,53.78
2024-05-09T10:34:17.012Z,53.12
2024-05-09T10:35:16.940Z,53.07
2024-05-09T10:36:16.927Z,55.70
2024-05-09T10:37:17.065Z,52.11
2024-05-09T10:38:16.914Z,51.81
2024-05-09T10:39:16.910Z,51.84
2024-05-09T10:40:23.486Z,50.00
2024-05-09T10:41:17.922Z,50.17
2024-05-09T10:42:16.937Z,50.60
2024-05-09T10:43:17.004Z,50.53
2024-05-09T10:44:16.948Z,51.72
2024-05-09T10:45:16.976Z,51.26
2024-05-09T10:46:17.108Z,52.66
2024-05-09T10:47:16.975Z,51.99
2024-05-09T10:48:17.020Z,51.62
2024-05-09T10:49:17.084Z,51.99
2024-05-09T10:50:22.661Z,53.67
2024-05-09T10:51:17.939Z,53.76
2024-05-09T10:52:16.980Z,53.84
2024-05-09T10:53:16.935Z,54.33
2024-05-09T10:54:16.934Z,53.87
2024-05-09T10:55:17.051Z,54.58
2024-05-09T10:56:17.210Z,55.53
2024-05-09T10:57:16.972Z,53.90
2024-05-09T10:58:17.096Z,52.14
2024-05-09T10:59:16.939Z,55.03
2024-05-09T11:00:27.043Z,51.97
2024-05-09T11:01:18.015Z,52.09
2024-05-09T11:02:17.064Z,52.19
2024-05-09T11:03:17.029Z,52.80
2024-05-09T11:04:17.225Z,53.48
2024-05-09T11:05:17.180Z,53.18
2024-05-09T11:06:17.042Z,51.61
2024-05-09T11:07:17.025Z,52.86
2024-05-09T11:08:16.968Z,53.16
2024-05-09T11:09:16.980Z,55.20
2024-05-09T11:10:24.858Z,52.15
2024-05-09T11:11:18.020Z,52.28
2024-05-09T11:12:16.965Z,52.78
2024-05-09T11:13:17.011Z,52.67
2024-05-09T11:14:16.988Z,52.17
2024-05-09T11:15:16.992Z,54.65
2024-05-09T11:16:17.416Z,51.62
2024-05-09T11:17:17.002Z,55.05
2024-05-09T11:18:17.130Z,51.87
2024-05-09T11:19:17.137Z,51.18
2024-05-09T11:20:23.232Z,52.27
2024-05-09T11:21:17.976Z,52.35
2024-05-09T11:22:17.011Z,53.08
2024-05-09T11:23:16.964Z,53.32
2024-05-09T11:24:16.983Z,53.59
2024-05-09T11:25:17.061Z,52.88
2024-05-09T11:26:16.980Z,52.01
2024-05-09T11:27:16.995Z,53.39
2024-05-09T11:28:17.161Z,51.83
2024-05-09T11:29:19.521Z,56.01
2024-05-09T11:30:24.204Z,56.92
2024-05-09T11:31:18.135Z,57.10
2024-05-09T11:32:17.049Z,57.06
2024-05-09T11:33:17.052Z,57.18
2024-05-09T11:34:17.074Z,56.78
2024-05-09T11:35:17.046Z,56.53
2024-05-09T11:36:17.016Z,56.48
2024-05-09T11:37:17.095Z,55.20
2024-05-09T11:38:17.025Z,55.00
2024-05-09T11:39:17.027Z,54.99
2024-05-09T11:40:24.841Z,55.92
2024-05-09T11:41:17.980Z,56.09
2024-05-09T11:42:17.003Z,55.96
2024-05-09T11:43:17.105Z,56.29
2024-05-09T11:44:17.047Z,55.02
2024-05-09T11:45:17.110Z,54.14
2024-05-09T11:46:17.238Z,56.41
2024-05-09T11:47:17.044Z,53.74
2024-05-09T11:48:17.132Z,52.31
2024-05-09T11:49:17.135Z,54.73
2024-05-09T11:50:26.729Z,53.13
2024-05-09T11:51:17.999Z,53.25
2024-05-09T11:52:17.151Z,53.63
2024-05-09T11:53:17.041Z,54.06
2024-05-09T11:54:17.036Z,53.13
2024-05-09T11:55:17.120Z,55.27
2024-05-09T11:56:17.001Z,54.32
2024-05-09T11:57:16.988Z,55.04
2024-05-09T11:58:17.484Z,53.91
2024-05-09T11:59:17.015Z,51.46
2024-05-09T12:00:24.883Z,53.37
2024-05-09T12:01:18.096Z,53.55
2024-05-09T12:02:17.216Z,54.27
2024-05-09T12:03:17.062Z,54.23
2024-05-09T12:04:17.187Z,53.69
2024-05-09T12:05:17.269Z,53.46
2024-05-09T12:06:17.073Z,54.37
2024-05-09T12:07:17.136Z,53.82
2024-05-09T12:08:17.044Z,54.17
2024-05-09T12:09:17.034Z,53.58
2024-05-09T12:10:22.314Z,53.72
2024-05-09T12:11:18.098Z,53.84
2024-05-09T12:12:17.052Z,54.23
2024-05-09T12:13:17.100Z,54.43
2024-05-09T12:14:17.052Z,53.99
2024-05-09T12:15:17.240Z,53.76
2024-05-09T12:16:17.248Z,53.21
2024-05-09T12:17:17.070Z,51.92
2024-05-09T12:18:17.059Z,53.01
2024-05-09T12:19:17.135Z,53.57
2024-05-09T12:20:25.151Z,53.26
2024-05-09T12:21:18.051Z,53.01
2024-05-09T12:22:17.162Z,52.18
2024-05-09T12:23:17.072Z,53.70
2024-05-09T12:24:18.516Z,51.81
2024-05-09T12:25:17.145Z,51.67
2024-05-09T12:26:17.064Z,51.92
2024-05-09T12:27:17.072Z,51.52
2024-05-09T12:28:17.193Z,50.77
2024-05-09T12:29:17.121Z,50.82
2024-05-09T12:30:28.062Z,52.79
2024-05-09T12:31:18.247Z,52.86
2024-05-09T12:32:17.223Z,52.92
2024-05-09T12:33:17.345Z,51.83
2024-05-09T12:34:17.302Z,53.01
2024-05-09T12:35:17.229Z,47.96
2024-05-09T12:36:17.229Z,53.45
2024-05-09T12:37:17.352Z,52.99
2024-05-09T12:38:17.241Z,53.04
2024-05-09T12:39:17.292Z,53.40
2024-05-09T12:40:26.229Z,52.16
2024-05-09T12:41:18.404Z,52.24
2024-05-09T12:42:26.552Z,52.53
2024-05-09T12:43:18.471Z,52.33
2024-05-09T12:44:17.378Z,52.94
2024-05-09T12:45:17.407Z,54.03
2024-05-09T12:46:17.444Z,55.36
2024-05-09T12:47:17.438Z,58.45
2024-05-09T12:48:17.546Z,57.62
2024-05-09T12:49:19.167Z,57.78
2024-05-09T12:50:25.114Z,57.77
2024-05-09T12:51:18.468Z,57.83
2024-05-09T12:52:17.452Z,58.01
2024-05-09T12:53:17.463Z,57.41
2024-05-09T12:54:17.450Z,58.71
2024-05-09T12:55:17.688Z,59.34
2024-05-09T12:56:17.473Z,60.29